Camana, Peru
Current Conditions -  °F | °C
As of 3:00 PM on Saturday 25 Oct 2014 (Local Time) from SPQU Reporting Station
Clear Clear  
Wind Chill: 66°   Ceiling: Unl
Heat Index: 66°   Visibility: 6mi
Dew Point: 34°   Wind: 15mph
Humidity: 30%   Direction: 270°W
Pressure: 30.27"   Gusts: NA
Location:  16.62°S, 72.72°W
Report Text: SPQU 252000Z 27013KT CAVOK 19/01 Q1025 NOSIGRMK HTE HZ PP000
Loading
Personal Weather Stations






























Interactive Weather Map New forecast layout! Learn more

10-Day Weather Forecast

Advertisements
Track Severe Weather on mobile